Wickett, TX (79788)

9:51 AM CST on February 07, 2016 (GMT -0600)
MesoWest | | Change Station
CLOSE
Current Station
Personal Weather Station
Location: Wickett, TX
Elevation: 2639 ft
Nearby Weather Stations

Elev 2639 ft 31.58 °N, 102.96 °W | Updated 1 hour ago

Clear
Clear
36.0 °F
Feels Like 36.0 °F
N
0.0
Wind Variable Wind from North
Gusts 4.0 mph

Today
High -- | Low -- °F
--% Chance of Precip.
Yesterday
High -- | Low -- °F
Precip. -- in
Pressure 30.19 in
Visibility 10.0 miles
Clouds Clear
Dew Point Not available.
Humidity Not available.
Rainfall in
Snow Depth Not available.
7:40 AM 6:31 PM
Waning Crescent, 1% visible
METAR KINK 071453Z AUTO 00000KT 10SM CLR 02/M10 A3020 RMK AO2 SLP224 T00171100 53008 TSNO
Pressure 30.19 in
Visibility 10.0 miles
Clouds Clear
Dew Point Not available.
Humidity Not available.
Rainfall in
Snow Depth Not available.
7:40 AM 6:31 PM
Waning Crescent, 1% visible
METAR KINK 071453Z AUTO 00000KT 10SM CLR 02/M10 A3020 RMK AO2 SLP224 T00171100 53008 TSNO

10-Day Weather Forecast

Almanac

Astronomy

Feb. 07, 2016 Rise Set
Actual Time
Civil Twilight
Nautical Twilight
Astronomical Twilight
Moon
Length of Visible Light
Length of Day
Tomorrow will be .
, % of the Moon is Illuminated

Today's Extremes

State Highs State Lows

Community

WunderPhotos

Upload Photos

1,891,216 photos uploaded!

WunderBlog® & News

Nearby

Air Quality

  Air Quality AQ Index Pollutant
Not available.

Snow Depth

Station Depth Elevation

Earthquake Activity

City Distance Mag. Time & Date
Minimum magnitude displayed is 2.5.

Coastal Water Temperatures

Place Temperature

Stations

Nearby Weather Stations

Station Location Temp. Windchill Dew Point Humidity Wind Precip. Elev Updated Type
                   

Watches & Warnings

There are currently no watches in effect.